sensor_id;sensor_type;location;lat;lon;timestamp;P1;durP1;ratioP1;P2;durP2;ratioP2
24273;SDS011;12392;42.678;23.380;2023-12-20T00:02:18;123.57;;;64.32;;
24273;SDS011;12392;42.678;23.380;2023-12-20T00:04:44;112.00;;;61.83;;
24273;SDS011;12392;42.678;23.380;2023-12-20T00:07:09;118.45;;;64.57;;
24273;SDS011;12392;42.678;23.380;2023-12-20T00:09:35;97.13;;;57.92;;
24273;SDS011;12392;42.678;23.380;2023-12-20T00:12:01;142.50;;;74.68;;
24273;SDS011;12392;42.678;23.380;2023-12-20T00:14:27;152.02;;;90.63;;
24273;SDS011;12392;42.678;23.380;2023-12-20T00:16:53;358.20;;;153.95;;
24273;SDS011;12392;42.678;23.380;2023-12-20T00:19:18;615.20;;;236.38;;
24273;SDS011;12392;42.678;23.380;2023-12-20T00:21:45;645.97;;;235.23;;
24273;SDS011;12392;42.678;23.380;2023-12-20T00:24:10;650.25;;;214.77;;
24273;SDS011;12392;42.678;23.380;2023-12-20T00:26:36;604.83;;;232.93;;
24273;SDS011;12392;42.678;23.380;2023-12-20T00:29:01;686.45;;;259.80;;
24273;SDS011;12392;42.678;23.380;2023-12-20T00:31:27;598.33;;;254.63;;
24273;SDS011;12392;42.678;23.380;2023-12-20T00:33:53;508.45;;;234.20;;
24273;SDS011;12392;42.678;23.380;2023-12-20T00:36:19;528.00;;;236.48;;
24273;SDS011;12392;42.678;23.380;2023-12-20T00:38:45;495.67;;;216.73;;
24273;SDS011;12392;42.678;23.380;2023-12-20T00:41:11;415.02;;;201.60;;
24273;SDS011;12392;42.678;23.380;2023-12-20T00:43:36;519.60;;;221.75;;
24273;SDS011;12392;42.678;23.380;2023-12-20T00:46:02;402.67;;;206.25;;
24273;SDS011;12392;42.678;23.380;2023-12-20T00:48:28;450.58;;;196.40;;
24273;SDS011;12392;42.678;23.380;2023-12-20T00:50:56;496.92;;;194.50;;
24273;SDS011;12392;42.678;23.380;2023-12-20T00:53:22;413.08;;;173.18;;
24273;SDS011;12392;42.678;23.380;2023-12-20T00:55:48;470.98;;;177.80;;
24273;SDS011;12392;42.678;23.380;2023-12-20T00:58:15;437.35;;;178.82;;
24273;SDS011;12392;42.678;23.380;2023-12-20T01:00:41;691.00;;;230.27;;
24273;SDS011;12392;42.678;23.380;2023-12-20T01:03:08;447.65;;;159.27;;
24273;SDS011;12392;42.678;23.380;2023-12-20T01:05:33;353.00;;;158.07;;
24273;SDS011;12392;42.678;23.380;2023-12-20T01:07:59;487.90;;;172.13;;
24273;SDS011;12392;42.678;23.380;2023-12-20T01:10:25;474.77;;;164.10;;
24273;SDS011;12392;42.678;23.380;2023-12-20T01:12:53;361.65;;;154.35;;
24273;SDS011;12392;42.678;23.380;2023-12-20T01:15:18;428.05;;;153.18;;
24273;SDS011;12392;42.678;23.380;2023-12-20T01:17:44;587.47;;;192.10;;
24273;SDS011;12392;42.678;23.380;2023-12-20T01:20:10;365.15;;;158.52;;
24273;SDS011;12392;42.678;23.380;2023-12-20T01:22:36;412.40;;;159.65;;
24273;SDS011;12392;42.678;23.380;2023-12-20T01:25:02;398.02;;;155.43;;
24273;SDS011;12392;42.678;23.380;2023-12-20T01:27:27;318.23;;;150.05;;
24273;SDS011;12392;42.678;23.380;2023-12-20T01:29:54;358.83;;;160.15;;
24273;SDS011;12392;42.678;23.380;2023-12-20T01:32:19;356.00;;;162.90;;
24273;SDS011;12392;42.678;23.380;2023-12-20T01:34:45;564.35;;;210.30;;
24273;SDS011;12392;42.678;23.380;2023-12-20T01:37:11;538.17;;;209.90;;
24273;SDS011;12392;42.678;23.380;2023-12-20T01:39:36;591.95;;;217.13;;
24273;SDS011;12392;42.678;23.380;2023-12-20T01:42:02;445.45;;;185.27;;
24273;SDS011;12392;42.678;23.380;2023-12-20T01:44:28;604.05;;;227.35;;
24273;SDS011;12392;42.678;23.380;2023-12-20T01:46:53;365.65;;;173.43;;
24273;SDS011;12392;42.678;23.380;2023-12-20T01:49:19;300.33;;;164.23;;
24273;SDS011;12392;42.678;23.380;2023-12-20T01:51:45;290.15;;;159.90;;
24273;SDS011;12392;42.678;23.380;2023-12-20T01:54:11;429.95;;;199.98;;
24273;SDS011;12392;42.678;23.380;2023-12-20T01:56:37;298.98;;;161.73;;
24273;SDS011;12392;42.678;23.380;2023-12-20T01:59:03;267.98;;;155.20;;
24273;SDS011;12392;42.678;23.380;2023-12-20T02:01:29;325.35;;;157.68;;
24273;SDS011;12392;42.678;23.380;2023-12-20T02:03:56;256.08;;;147.93;;
24273;SDS011;12392;42.678;23.380;2023-12-20T02:06:22;237.55;;;141.85;;
24273;SDS011;12392;42.678;23.380;2023-12-20T02:08:49;236.93;;;141.55;;
24273;SDS011;12392;42.678;23.380;2023-12-20T02:11:15;250.00;;;140.15;;
24273;SDS011;12392;42.678;23.380;2023-12-20T02:13:41;256.33;;;131.15;;
24273;SDS011;12392;42.678;23.380;2023-12-20T02:16:07;232.88;;;124.38;;
24273;SDS011;12392;42.678;23.380;2023-12-20T02:18:33;232.65;;;119.60;;
24273;SDS011;12392;42.678;23.380;2023-12-20T02:20:58;204.50;;;110.97;;
24273;SDS011;12392;42.678;23.380;2023-12-20T02:23:24;190.52;;;108.93;;
24273;SDS011;12392;42.678;23.380;2023-12-20T02:25:50;292.15;;;120.93;;
24273;SDS011;12392;42.678;23.380;2023-12-20T02:28:16;230.90;;;108.25;;
24273;SDS011;12392;42.678;23.380;2023-12-20T02:30:42;238.75;;;108.53;;
24273;SDS011;12392;42.678;23.380;2023-12-20T02:33:07;215.23;;;112.05;;
24273;SDS011;12392;42.678;23.380;2023-12-20T02:35:34;251.05;;;106.53;;
24273;SDS011;12392;42.678;23.380;2023-12-20T02:37:59;224.13;;;109.75;;
24273;SDS011;12392;42.678;23.380;2023-12-20T02:40:25;231.82;;;108.78;;
24273;SDS011;12392;42.678;23.380;2023-12-20T02:42:50;257.25;;;112.57;;
24273;SDS011;12392;42.678;23.380;2023-12-20T02:45:16;206.38;;;107.20;;
24273;SDS011;12392;42.678;23.380;2023-12-20T02:47:42;218.68;;;108.10;;
24273;SDS011;12392;42.678;23.380;2023-12-20T02:50:07;244.75;;;109.63;;
24273;SDS011;12392;42.678;23.380;2023-12-20T02:52:33;232.23;;;110.00;;
24273;SDS011;12392;42.678;23.380;2023-12-20T02:54:59;227.10;;;107.25;;
24273;SDS011;12392;42.678;23.380;2023-12-20T02:57:24;217.90;;;108.68;;
24273;SDS011;12392;42.678;23.380;2023-12-20T02:59:50;253.20;;;107.00;;
24273;SDS011;12392;42.678;23.380;2023-12-20T03:02:16;180.50;;;102.10;;
24273;SDS011;12392;42.678;23.380;2023-12-20T03:04:41;277.58;;;111.78;;
24273;SDS011;12392;42.678;23.380;2023-12-20T03:07:07;235.98;;;105.85;;
24273;SDS011;12392;42.678;23.380;2023-12-20T03:09:33;205.27;;;102.55;;
24273;SDS011;12392;42.678;23.380;2023-12-20T03:11:58;306.58;;;125.70;;
24273;SDS011;12392;42.678;23.380;2023-12-20T03:14:24;244.60;;;115.15;;
24273;SDS011;12392;42.678;23.380;2023-12-20T03:16:50;279.08;;;124.43;;
24273;SDS011;12392;42.678;23.380;2023-12-20T03:19:16;249.13;;;118.32;;
24273;SDS011;12392;42.678;23.380;2023-12-20T03:21:42;239.70;;;110.20;;
24273;SDS011;12392;42.678;23.380;2023-12-20T03:24:08;244.13;;;111.05;;
24273;SDS011;12392;42.678;23.380;2023-12-20T03:26:33;334.67;;;133.00;;
24273;SDS011;12392;42.678;23.380;2023-12-20T03:28:59;281.00;;;122.25;;
24273;SDS011;12392;42.678;23.380;2023-12-20T03:31:25;309.73;;;126.90;;
24273;SDS011;12392;42.678;23.380;2023-12-20T03:33:50;265.08;;;117.43;;
24273;SDS011;12392;42.678;23.380;2023-12-20T03:36:18;249.45;;;113.40;;
24273;SDS011;12392;42.678;23.380;2023-12-20T03:38:44;237.95;;;114.22;;
24273;SDS011;12392;42.678;23.380;2023-12-20T03:41:10;275.10;;;118.55;;
24273;SDS011;12392;42.678;23.380;2023-12-20T03:43:36;195.20;;;99.07;;
24273;SDS011;12392;42.678;23.380;2023-12-20T03:46:02;201.93;;;96.30;;
24273;SDS011;12392;42.678;23.380;2023-12-20T03:48:29;178.02;;;93.85;;
24273;SDS011;12392;42.678;23.380;2023-12-20T03:50:56;215.30;;;105.00;;
24273;SDS011;12392;42.678;23.380;2023-12-20T03:53:22;203.95;;;97.88;;
24273;SDS011;12392;42.678;23.380;2023-12-20T03:55:47;210.30;;;99.93;;
24273;SDS011;12392;42.678;23.380;2023-12-20T03:58:13;190.85;;;98.72;;
24273;SDS011;12392;42.678;23.380;2023-12-20T04:00:39;175.73;;;94.50;;
24273;SDS011;12392;42.678;23.380;2023-12-20T04:03:04;206.40;;;98.82;;
24273;SDS011;12392;42.678;23.380;2023-12-20T04:05:30;206.73;;;100.03;;
24273;SDS011;12392;42.678;23.380;2023-12-20T04:07:56;177.85;;;94.10;;
24273;SDS011;12392;42.678;23.380;2023-12-20T04:10:21;172.25;;;90.85;;
24273;SDS011;12392;42.678;23.380;2023-12-20T04:12:47;187.35;;;93.35;;
24273;SDS011;12392;42.678;23.380;2023-12-20T04:15:13;193.70;;;95.18;;
24273;SDS011;12392;42.678;23.380;2023-12-20T04:17:38;251.25;;;101.72;;
24273;SDS011;12392;42.678;23.380;2023-12-20T04:20:05;204.18;;;94.82;;
24273;SDS011;12392;42.678;23.380;2023-12-20T04:22:31;164.63;;;89.05;;
24273;SDS011;12392;42.678;23.380;2023-12-20T04:24:56;189.65;;;88.95;;
24273;SDS011;12392;42.678;23.380;2023-12-20T04:27:22;156.20;;;82.50;;
24273;SDS011;12392;42.678;23.380;2023-12-20T04:29:48;156.88;;;82.35;;
24273;SDS011;12392;42.678;23.380;2023-12-20T04:32:13;179.02;;;86.90;;
24273;SDS011;12392;42.678;23.380;2023-12-20T04:34:39;177.82;;;85.05;;
24273;SDS011;12392;42.678;23.380;2023-12-20T04:37:05;208.70;;;87.05;;
24273;SDS011;12392;42.678;23.380;2023-12-20T04:39:31;186.00;;;84.18;;
24273;SDS011;12392;42.678;23.380;2023-12-20T04:41:56;188.32;;;85.97;;
24273;SDS011;12392;42.678;23.380;2023-12-20T04:44:22;175.70;;;83.97;;
24273;SDS011;12392;42.678;23.380;2023-12-20T04:46:48;172.93;;;85.38;;
24273;SDS011;12392;42.678;23.380;2023-12-20T04:49:14;175.45;;;85.88;;
24273;SDS011;12392;42.678;23.380;2023-12-20T04:51:39;182.07;;;82.28;;
24273;SDS011;12392;42.678;23.380;2023-12-20T04:54:05;180.65;;;84.90;;
24273;SDS011;12392;42.678;23.380;2023-12-20T04:56:31;170.18;;;83.57;;
24273;SDS011;12392;42.678;23.380;2023-12-20T04:58:57;187.73;;;88.43;;
24273;SDS011;12392;42.678;23.380;2023-12-20T05:01:22;214.93;;;97.43;;
24273;SDS011;12392;42.678;23.380;2023-12-20T05:03:48;167.15;;;77.45;;
24273;SDS011;12392;42.678;23.380;2023-12-20T05:06:14;150.77;;;67.53;;
24273;SDS011;12392;42.678;23.380;2023-12-20T05:08:40;139.18;;;66.88;;
24273;SDS011;12392;42.678;23.380;2023-12-20T05:11:05;156.40;;;70.60;;
24273;SDS011;12392;42.678;23.380;2023-12-20T05:13:31;161.27;;;68.50;;
24273;SDS011;12392;42.678;23.380;2023-12-20T05:15:57;118.32;;;52.00;;
24273;SDS011;12392;42.678;23.380;2023-12-20T05:18:23;156.77;;;50.53;;
24273;SDS011;12392;42.678;23.380;2023-12-20T05:20:49;150.90;;;50.15;;
24273;SDS011;12392;42.678;23.380;2023-12-20T05:23:15;124.78;;;47.40;;
24273;SDS011;12392;42.678;23.380;2023-12-20T05:25:42;111.78;;;43.25;;
24273;SDS011;12392;42.678;23.380;2023-12-20T05:28:08;114.60;;;46.83;;
24273;SDS011;12392;42.678;23.380;2023-12-20T05:30:33;110.95;;;48.10;;
24273;SDS011;12392;42.678;23.380;2023-12-20T05:32:59;107.28;;;49.75;;
24273;SDS011;12392;42.678;23.380;2023-12-20T05:35:24;138.10;;;58.25;;
24273;SDS011;12392;42.678;23.380;2023-12-20T05:37:50;147.63;;;61.45;;
24273;SDS011;12392;42.678;23.380;2023-12-20T05:40:16;143.82;;;63.50;;
24273;SDS011;12392;42.678;23.380;2023-12-20T05:42:41;197.57;;;73.63;;
24273;SDS011;12392;42.678;23.380;2023-12-20T05:45:08;149.13;;;61.38;;
24273;SDS011;12392;42.678;23.380;2023-12-20T05:47:34;132.02;;;62.53;;
24273;SDS011;12392;42.678;23.380;2023-12-20T05:50:00;141.55;;;62.05;;
24273;SDS011;12392;42.678;23.380;2023-12-20T05:52:25;138.05;;;59.20;;
24273;SDS011;12392;42.678;23.380;2023-12-20T05:54:51;138.05;;;55.17;;
24273;SDS011;12392;42.678;23.380;2023-12-20T05:57:17;132.25;;;58.03;;
24273;SDS011;12392;42.678;23.380;2023-12-20T05:59:42;148.25;;;54.63;;
24273;SDS011;12392;42.678;23.380;2023-12-20T06:02:08;149.75;;;54.28;;
24273;SDS011;12392;42.678;23.380;2023-12-20T06:04:34;268.02;;;65.50;;
24273;SDS011;12392;42.678;23.380;2023-12-20T06:06:59;140.85;;;54.97;;
24273;SDS011;12392;42.678;23.380;2023-12-20T06:09:28;125.25;;;52.85;;
24273;SDS011;12392;42.678;23.380;2023-12-20T06:11:54;233.82;;;63.60;;
24273;SDS011;12392;42.678;23.380;2023-12-20T06:14:20;150.82;;;53.38;;
24273;SDS011;12392;42.678;23.380;2023-12-20T06:16:46;153.63;;;59.15;;
24273;SDS011;12392;42.678;23.380;2023-12-20T06:19:12;153.48;;;58.28;;
24273;SDS011;12392;42.678;23.380;2023-12-20T06:21:37;166.30;;;59.38;;
24273;SDS011;12392;42.678;23.380;2023-12-20T06:24:03;206.65;;;61.50;;
24273;SDS011;12392;42.678;23.380;2023-12-20T06:26:29;177.80;;;59.25;;
24273;SDS011;12392;42.678;23.380;2023-12-20T06:28:55;161.40;;;60.55;;
24273;SDS011;12392;42.678;23.380;2023-12-20T06:31:21;234.75;;;63.22;;
24273;SDS011;12392;42.678;23.380;2023-12-20T06:33:46;284.63;;;59.95;;
24273;SDS011;12392;42.678;23.380;2023-12-20T06:36:14;141.25;;;46.85;;
24273;SDS011;12392;42.678;23.380;2023-12-20T06:38:40;115.13;;;49.08;;
24273;SDS011;12392;42.678;23.380;2023-12-20T06:41:07;138.88;;;50.13;;
24273;SDS011;12392;42.678;23.380;2023-12-20T06:43:33;130.02;;;49.42;;
24273;SDS011;12392;42.678;23.380;2023-12-20T06:46:00;115.40;;;51.28;;
24273;SDS011;12392;42.678;23.380;2023-12-20T06:48:25;169.63;;;52.78;;
24273;SDS011;12392;42.678;23.380;2023-12-20T06:50:51;192.13;;;56.05;;
24273;SDS011;12392;42.678;23.380;2023-12-20T06:53:17;252.20;;;60.50;;
24273;SDS011;12392;42.678;23.380;2023-12-20T06:55:43;122.88;;;50.10;;
24273;SDS011;12392;42.678;23.380;2023-12-20T06:58:09;177.77;;;55.13;;
24273;SDS011;12392;42.678;23.380;2023-12-20T07:00:35;119.45;;;49.20;;
24273;SDS011;12392;42.678;23.380;2023-12-20T07:03:03;150.02;;;54.47;;
24273;SDS011;12392;42.678;23.380;2023-12-20T07:05:29;135.68;;;54.72;;
24273;SDS011;12392;42.678;23.380;2023-12-20T07:07:55;139.55;;;58.58;;
24273;SDS011;12392;42.678;23.380;2023-12-20T07:10:20;155.60;;;58.17;;
24273;SDS011;12392;42.678;23.380;2023-12-20T07:12:46;132.63;;;55.78;;
24273;SDS011;12392;42.678;23.380;2023-12-20T07:15:13;108.75;;;51.58;;
24273;SDS011;12392;42.678;23.380;2023-12-20T07:17:39;101.00;;;49.22;;
24273;SDS011;12392;42.678;23.380;2023-12-20T07:20:05;95.93;;;46.97;;
24273;SDS011;12392;42.678;23.380;2023-12-20T07:22:34;99.50;;;49.35;;
24273;SDS011;12392;42.678;23.380;2023-12-20T07:25:00;119.68;;;56.95;;
24273;SDS011;12392;42.678;23.380;2023-12-20T07:27:26;136.05;;;55.83;;
24273;SDS011;12392;42.678;23.380;2023-12-20T07:29:52;148.80;;;56.92;;
24273;SDS011;12392;42.678;23.380;2023-12-20T07:32:18;141.75;;;57.15;;
24273;SDS011;12392;42.678;23.380;2023-12-20T07:34:44;160.80;;;70.20;;
24273;SDS011;12392;42.678;23.380;2023-12-20T07:37:10;177.27;;;65.25;;
24273;SDS011;12392;42.678;23.380;2023-12-20T07:39:39;144.45;;;60.88;;
24273;SDS011;12392;42.678;23.380;2023-12-20T07:42:06;149.32;;;60.20;;
24273;SDS011;12392;42.678;23.380;2023-12-20T07:44:32;170.32;;;65.78;;
24273;SDS011;12392;42.678;23.380;2023-12-20T07:46:58;159.60;;;61.83;;
24273;SDS011;12392;42.678;23.380;2023-12-20T07:49:24;175.35;;;60.60;;
24273;SDS011;12392;42.678;23.380;2023-12-20T07:51:49;166.68;;;59.50;;
24273;SDS011;12392;42.678;23.380;2023-12-20T07:54:15;111.22;;;50.72;;
24273;SDS011;12392;42.678;23.380;2023-12-20T07:56:41;162.75;;;52.90;;
24273;SDS011;12392;42.678;23.380;2023-12-20T07:59:07;171.05;;;56.67;;
24273;SDS011;12392;42.678;23.380;2023-12-20T08:01:33;159.73;;;51.90;;
24273;SDS011;12392;42.678;23.380;2023-12-20T08:03:58;218.63;;;53.65;;
24273;SDS011;12392;42.678;23.380;2023-12-20T08:06:24;148.43;;;49.75;;
24273;SDS011;12392;42.678;23.380;2023-12-20T08:08:50;110.32;;;49.75;;
24273;SDS011;12392;42.678;23.380;2023-12-20T08:11:15;129.45;;;50.83;;
24273;SDS011;12392;42.678;23.380;2023-12-20T08:13:42;134.20;;;44.35;;
24273;SDS011;12392;42.678;23.380;2023-12-20T08:16:08;200.93;;;45.42;;
24273;SDS011;12392;42.678;23.380;2023-12-20T08:18:34;136.02;;;44.97;;
24273;SDS011;12392;42.678;23.380;2023-12-20T08:21:00;166.65;;;42.17;;
24273;SDS011;12392;42.678;23.380;2023-12-20T08:23:26;120.80;;;42.00;;
24273;SDS011;12392;42.678;23.380;2023-12-20T08:25:52;141.57;;;40.85;;
24273;SDS011;12392;42.678;23.380;2023-12-20T08:28:18;131.77;;;44.60;;
24273;SDS011;12392;42.678;23.380;2023-12-20T08:30:44;121.68;;;44.03;;
24273;SDS011;12392;42.678;23.380;2023-12-20T08:33:09;128.82;;;45.05;;
24273;SDS011;12392;42.678;23.380;2023-12-20T08:35:38;102.00;;;43.40;;
24273;SDS011;12392;42.678;23.380;2023-12-20T08:38:05;115.07;;;46.42;;
24273;SDS011;12392;42.678;23.380;2023-12-20T08:40:31;120.10;;;44.10;;
24273;SDS011;12392;42.678;23.380;2023-12-20T08:42:56;133.77;;;45.90;;
24273;SDS011;12392;42.678;23.380;2023-12-20T08:45:22;110.13;;;45.78;;
24273;SDS011;12392;42.678;23.380;2023-12-20T08:47:48;122.00;;;44.17;;
24273;SDS011;12392;42.678;23.380;2023-12-20T08:50:14;149.35;;;48.40;;
24273;SDS011;12392;42.678;23.380;2023-12-20T08:52:40;166.00;;;48.60;;
24273;SDS011;12392;42.678;23.380;2023-12-20T08:55:07;175.77;;;56.10;;
24273;SDS011;12392;42.678;23.380;2023-12-20T08:57:33;162.43;;;48.70;;
24273;SDS011;12392;42.678;23.380;2023-12-20T08:59:58;128.68;;;51.63;;
24273;SDS011;12392;42.678;23.380;2023-12-20T09:02:24;163.18;;;52.90;;
24273;SDS011;12392;42.678;23.380;2023-12-20T09:04:50;129.50;;;51.53;;
24273;SDS011;12392;42.678;23.380;2023-12-20T09:07:23;149.40;;;47.17;;
24273;SDS011;12392;42.678;23.380;2023-12-20T09:09:52;181.18;;;47.30;;
24273;SDS011;12392;42.678;23.380;2023-12-20T09:12:18;144.73;;;45.67;;
24273;SDS011;12392;42.678;23.380;2023-12-20T09:14:45;187.75;;;49.30;;
24273;SDS011;12392;42.678;23.380;2023-12-20T09:17:15;189.55;;;48.85;;
24273;SDS011;12392;42.678;23.380;2023-12-20T09:19:42;146.27;;;52.47;;
24273;SDS011;12392;42.678;23.380;2023-12-20T09:22:09;142.63;;;46.03;;
24273;SDS011;12392;42.678;23.380;2023-12-20T09:24:36;117.57;;;46.13;;
24273;SDS011;12392;42.678;23.380;2023-12-20T09:27:02;111.03;;;44.30;;
24273;SDS011;12392;42.678;23.380;2023-12-20T09:29:29;156.50;;;45.30;;
24273;SDS011;12392;42.678;23.380;2023-12-20T09:31:54;151.88;;;48.55;;
24273;SDS011;12392;42.678;23.380;2023-12-20T09:34:20;125.28;;;47.88;;
24273;SDS011;12392;42.678;23.380;2023-12-20T09:36:47;114.30;;;46.15;;
24273;SDS011;12392;42.678;23.380;2023-12-20T09:39:17;116.13;;;46.35;;
24273;SDS011;12392;42.678;23.380;2023-12-20T09:42:05;108.05;;;46.30;;
24273;SDS011;12392;42.678;23.380;2023-12-20T09:44:32;113.75;;;49.10;;
24273;SDS011;12392;42.678;23.380;2023-12-20T09:46:59;118.93;;;51.72;;
24273;SDS011;12392;42.678;23.380;2023-12-20T09:49:28;116.82;;;50.90;;
24273;SDS011;12392;42.678;23.380;2023-12-20T09:51:54;117.10;;;52.13;;
24273;SDS011;12392;42.678;23.380;2023-12-20T09:54:21;126.95;;;55.80;;
24273;SDS011;12392;42.678;23.380;2023-12-20T09:56:47;114.45;;;54.40;;
24273;SDS011;12392;42.678;23.380;2023-12-20T09:59:13;108.10;;;49.25;;
24273;SDS011;12392;42.678;23.380;2023-12-20T10:01:40;114.15;;;54.88;;
24273;SDS011;12392;42.678;23.380;2023-12-20T10:04:07;106.00;;;51.72;;
24273;SDS011;12392;42.678;23.380;2023-12-20T10:06:37;110.88;;;53.60;;
24273;SDS011;12392;42.678;23.380;2023-12-20T10:09:04;109.57;;;52.88;;
24273;SDS011;12392;42.678;23.380;2023-12-20T10:11:30;109.07;;;54.65;;
24273;SDS011;12392;42.678;23.380;2023-12-20T10:13:59;113.72;;;51.65;;
24273;SDS011;12392;42.678;23.380;2023-12-20T10:16:28;100.38;;;51.58;;
24273;SDS011;12392;42.678;23.380;2023-12-20T10:18:54;103.03;;;50.22;;
24273;SDS011;12392;42.678;23.380;2023-12-20T10:21:22;105.45;;;51.35;;
24273;SDS011;12392;42.678;23.380;2023-12-20T10:23:48;108.75;;;53.60;;
24273;SDS011;12392;42.678;23.380;2023-12-20T10:26:21;103.82;;;52.30;;
24273;SDS011;12392;42.678;23.380;2023-12-20T10:28:51;124.43;;;63.78;;
24273;SDS011;12392;42.678;23.380;2023-12-20T10:31:29;119.30;;;57.97;;
24273;SDS011;12392;42.678;23.380;2023-12-20T10:33:59;111.38;;;54.63;;
24273;SDS011;12392;42.678;23.380;2023-12-20T10:36:26;114.68;;;54.13;;
24273;SDS011;12392;42.678;23.380;2023-12-20T10:38:52;103.78;;;52.22;;
24273;SDS011;12392;42.678;23.380;2023-12-20T10:41:29;106.68;;;54.72;;
24273;SDS011;12392;42.678;23.380;2023-12-20T10:43:56;105.65;;;54.83;;
24273;SDS011;12392;42.678;23.380;2023-12-20T10:46:24;109.88;;;55.63;;
24273;SDS011;12392;42.678;23.380;2023-12-20T10:48:55;101.80;;;52.67;;
24273;SDS011;12392;42.678;23.380;2023-12-20T10:51:22;109.30;;;56.03;;
24273;SDS011;12392;42.678;23.380;2023-12-20T10:53:50;106.93;;;53.35;;
24273;SDS011;12392;42.678;23.380;2023-12-20T10:56:17;103.35;;;54.78;;
24273;SDS011;12392;42.678;23.380;2023-12-20T10:58:43;106.55;;;53.05;;
24273;SDS011;12392;42.678;23.380;2023-12-20T11:01:12;101.70;;;54.60;;
24273;SDS011;12392;42.678;23.380;2023-12-20T11:03:42;101.88;;;54.35;;
24273;SDS011;12392;42.678;23.380;2023-12-20T11:06:15;106.93;;;54.95;;
24273;SDS011;12392;42.678;23.380;2023-12-20T11:09:10;102.40;;;51.63;;
24273;SDS011;12392;42.678;23.380;2023-12-20T11:14:22;101.05;;;54.97;;
24273;SDS011;12392;42.678;23.380;2023-12-20T11:16:50;114.70;;;56.50;;
24273;SDS011;12392;42.678;23.380;2023-12-20T11:19:31;110.68;;;56.97;;
24273;SDS011;12392;42.678;23.380;2023-12-20T11:21:57;113.78;;;55.60;;
24273;SDS011;12392;42.678;23.380;2023-12-20T11:24:22;117.75;;;59.58;;
24273;SDS011;12392;42.678;23.380;2023-12-20T11:26:49;113.80;;;57.15;;
24273;SDS011;12392;42.678;23.380;2023-12-20T11:32:27;129.15;;;60.55;;
24273;SDS011;12392;42.678;23.380;2023-12-20T11:35:27;125.40;;;61.10;;
24273;SDS011;12392;42.678;23.380;2023-12-20T11:37:45;131.10;;;65.55;;
24273;SDS011;12392;42.678;23.380;2023-12-20T11:40:15;131.07;;;63.75;;
24273;SDS011;12392;42.678;23.380;2023-12-20T11:42:43;129.02;;;64.32;;
24273;SDS011;12392;42.678;23.380;2023-12-20T11:45:11;136.13;;;67.47;;
24273;SDS011;12392;42.678;23.380;2023-12-20T11:47:40;135.10;;;63.83;;
24273;SDS011;12392;42.678;23.380;2023-12-20T11:50:08;130.38;;;64.35;;
24273;SDS011;12392;42.678;23.380;2023-12-20T11:52:34;138.70;;;64.53;;
24273;SDS011;12392;42.678;23.380;2023-12-20T11:55:00;145.05;;;66.82;;
24273;SDS011;12392;42.678;23.380;2023-12-20T11:57:26;133.00;;;63.03;;
24273;SDS011;12392;42.678;23.380;2023-12-20T11:59:51;132.80;;;61.83;;
24273;SDS011;12392;42.678;23.380;2023-12-20T12:02:17;133.85;;;62.38;;
24273;SDS011;12392;42.678;23.380;2023-12-20T12:04:43;129.07;;;59.58;;
24273;SDS011;12392;42.678;23.380;2023-12-20T12:07:09;128.65;;;60.97;;
24273;SDS011;12392;42.678;23.380;2023-12-20T12:09:34;131.93;;;60.00;;
24273;SDS011;12392;42.678;23.380;2023-12-20T12:12:00;142.60;;;61.70;;
24273;SDS011;12392;42.678;23.380;2023-12-20T12:14:26;137.07;;;61.35;;
24273;SDS011;12392;42.678;23.380;2023-12-20T12:16:52;133.18;;;62.33;;
24273;SDS011;12392;42.678;23.380;2023-12-20T12:19:27;145.85;;;62.58;;
24273;SDS011;12392;42.678;23.380;2023-12-20T12:22:06;132.85;;;62.00;;
24273;SDS011;12392;42.678;23.380;2023-12-20T12:24:34;180.43;;;85.03;;
24273;SDS011;12392;42.678;23.380;2023-12-20T12:27:00;140.45;;;64.95;;
24273;SDS011;12392;42.678;23.380;2023-12-20T12:29:25;151.63;;;67.50;;
24273;SDS011;12392;42.678;23.380;2023-12-20T12:31:51;137.63;;;66.25;;
24273;SDS011;12392;42.678;23.380;2023-12-20T12:34:17;139.93;;;66.43;;
24273;SDS011;12392;42.678;23.380;2023-12-20T12:36:43;140.65;;;68.05;;
24273;SDS011;12392;42.678;23.380;2023-12-20T12:39:12;141.23;;;66.75;;
24273;SDS011;12392;42.678;23.380;2023-12-20T12:41:40;140.82;;;70.63;;
24273;SDS011;12392;42.678;23.380;2023-12-20T12:44:06;135.77;;;66.07;;
24273;SDS011;12392;42.678;23.380;2023-12-20T12:46:31;137.25;;;64.85;;
24273;SDS011;12392;42.678;23.380;2023-12-20T12:48:58;137.90;;;62.05;;
24273;SDS011;12392;42.678;23.380;2023-12-20T12:51:23;132.02;;;63.63;;
24273;SDS011;12392;42.678;23.380;2023-12-20T12:53:49;130.40;;;63.17;;
24273;SDS011;12392;42.678;23.380;2023-12-20T12:56:15;133.90;;;61.28;;
24273;SDS011;12392;42.678;23.380;2023-12-20T12:58:41;115.55;;;55.08;;
24273;SDS011;12392;42.678;23.380;2023-12-20T13:01:07;119.15;;;57.90;;
24273;SDS011;12392;42.678;23.380;2023-12-20T13:03:32;130.18;;;57.50;;
24273;SDS011;12392;42.678;23.380;2023-12-20T13:05:59;159.18;;;66.93;;
24273;SDS011;12392;42.678;23.380;2023-12-20T13:08:25;167.02;;;72.80;;
24273;SDS011;12392;42.678;23.380;2023-12-20T13:10:51;161.77;;;71.93;;
24273;SDS011;12392;42.678;23.380;2023-12-20T13:13:16;152.90;;;63.47;;
24273;SDS011;12392;42.678;23.380;2023-12-20T13:15:42;146.05;;;59.70;;
24273;SDS011;12392;42.678;23.380;2023-12-20T13:18:15;133.70;;;61.03;;
24273;SDS011;12392;42.678;23.380;2023-12-20T13:20:42;173.40;;;58.10;;
24273;SDS011;12392;42.678;23.380;2023-12-20T13:23:07;125.55;;;57.90;;
24273;SDS011;12392;42.678;23.380;2023-12-20T13:25:33;129.77;;;56.20;;
24273;SDS011;12392;42.678;23.380;2023-12-20T13:27:59;135.32;;;54.85;;
24273;SDS011;12392;42.678;23.380;2023-12-20T13:30:24;135.73;;;56.55;;
24273;SDS011;12392;42.678;23.380;2023-12-20T13:32:50;129.88;;;55.67;;
24273;SDS011;12392;42.678;23.380;2023-12-20T13:35:16;140.75;;;53.05;;
24273;SDS011;12392;42.678;23.380;2023-12-20T13:37:41;174.40;;;51.22;;
24273;SDS011;12392;42.678;23.380;2023-12-20T13:40:07;128.13;;;52.33;;
24273;SDS011;12392;42.678;23.380;2023-12-20T13:42:33;136.10;;;46.85;;
24273;SDS011;12392;42.678;23.380;2023-12-20T13:44:59;110.50;;;46.22;;
24273;SDS011;12392;42.678;23.380;2023-12-20T13:47:25;123.10;;;47.25;;
24273;SDS011;12392;42.678;23.380;2023-12-20T13:49:50;194.02;;;49.92;;
24273;SDS011;12392;42.678;23.380;2023-12-20T13:52:16;218.98;;;51.13;;
24273;SDS011;12392;42.678;23.380;2023-12-20T13:58:04;225.48;;;49.40;;
24273;SDS011;12392;42.678;23.380;2023-12-20T14:00:29;177.13;;;48.10;;